Time,TemperatureF,DewpointF,PressureIn,WindDirection,WindDirectionDegrees,WindSpeedMPH,WindSpeedGustMPH,Humidity,HourlyPrecipIn,Conditions,Clouds,dailyrainin,SoftwareType,DateUTC
2013-08-19 00:00:00,55.2,54.1,30.07,WNW,290,0.0,2.0,96,0.00,,,0.00,Wunderground v.1.15,2013-08-19 07:00:00,
2013-08-19 00:05:00,55.0,53.6,30.07,WNW,290,0.0,2.0,95,0.00,,,0.00,Wunderground v.1.15,2013-08-19 07:05:00,
2013-08-19 00:11:00,54.6,53.2,30.07,WNW,290,0.0,2.0,95,0.00,,,0.00,Wunderground v.1.15,2013-08-19 07:11:00,
2013-08-19 00:17:00,54.3,52.9,30.07,WNW,290,0.0,2.0,95,0.00,,,0.00,Wunderground v.1.15,2013-08-19 07:17:00,
2013-08-19 00:23:00,54.2,52.8,30.07,WNW,290,0.0,2.0,95,0.00,,,0.00,Wunderground v.1.15,2013-08-19 07:23:00,
2013-08-19 00:29:00,53.9,52.5,30.07,WNW,290,0.0,2.0,95,0.00,,,0.00,Wunderground v.1.15,2013-08-19 07:29:00,
2013-08-19 00:34:00,53.8,52.4,30.07,WNW,290,0.0,2.0,95,0.00,,,0.00,Wunderground v.1.15,2013-08-19 07:34:00,
2013-08-19 00:40:00,53.8,52.7,30.07,WNW,290,0.0,2.0,96,0.00,,,0.00,Wunderground v.1.15,2013-08-19 07:40:00,
2013-08-19 00:46:00,54.1,53.0,30.08,WNW,290,0.0,2.0,96,0.00,,,0.00,Wunderground v.1.15,2013-08-19 07:46:00,
2013-08-19 00:52:00,53.8,52.7,30.08,WNW,290,0.0,2.0,96,0.00,,,0.00,Wunderground v.1.15,2013-08-19 07:52:00,
2013-08-19 00:57:00,53.5,52.4,30.08,WNW,290,0.0,2.0,96,0.00,,,0.00,Wunderground v.1.15,2013-08-19 07:57:00,
2013-08-19 01:02:00,53.4,52.3,30.08,WNW,290,0.0,2.0,96,0.00,,,0.00,Wunderground v.1.15,2013-08-19 08:02:00,
2013-08-19 01:08:00,53.2,52.1,30.08,WNW,290,0.0,2.0,96,0.00,,,0.00,Wunderground v.1.15,2013-08-19 08:08:00,
2013-08-19 01:13:00,53.1,52.0,30.08,WNW,290,0.0,2.0,96,0.00,,,0.00,Wunderground v.1.15,2013-08-19 08:13:00,
2013-08-19 01:19:00,53.1,52.0,30.08,WNW,290,0.0,2.0,96,0.00,,,0.00,Wunderground v.1.15,2013-08-19 08:19:00,
2013-08-19 01:25:00,53.1,52.0,30.08,WNW,290,0.0,2.0,96,0.00,,,0.00,Wunderground v.1.15,2013-08-19 08:25:00,
2013-08-19 01:30:00,53.0,52.2,30.08,WNW,290,0.0,2.0,97,0.00,,,0.00,Wunderground v.1.15,2013-08-19 08:30:00,
2013-08-19 01:36:00,53.0,51.9,30.07,WNW,290,0.0,2.0,96,0.00,,,0.00,Wunderground v.1.15,2013-08-19 08:36:00,
2013-08-19 01:42:00,52.8,51.7,30.07,WNW,290,0.0,2.0,96,0.00,,,0.00,Wunderground v.1.15,2013-08-19 08:42:00,
2013-08-19 01:47:00,53.0,52.2,30.07,WNW,290,0.0,2.0,97,0.00,,,0.00,Wunderground v.1.15,2013-08-19 08:47:00,
2013-08-19 01:52:00,53.1,52.3,30.07,WNW,290,0.0,2.0,97,0.00,,,0.00,Wunderground v.1.15,2013-08-19 08:52:00,
2013-08-19 01:57:00,52.8,51.7,30.07,WNW,290,0.0,2.0,96,0.00,,,0.00,Wunderground v.1.15,2013-08-19 08:57:00,
2013-08-19 02:03:00,52.5,51.4,30.07,WNW,290,0.0,2.0,96,0.00,,,0.00,Wunderground v.1.15,2013-08-19 09:03:00,
2013-08-19 02:09:00,52.3,51.2,30.07,WNW,290,0.0,2.0,96,0.00,,,0.00,Wunderground v.1.15,2013-08-19 09:09:00,
2013-08-19 02:15:00,52.3,51.2,30.07,WNW,290,0.0,2.0,96,0.00,,,0.00,Wunderground v.1.15,2013-08-19 09:15:00,
2013-08-19 02:21:00,52.1,51.3,30.07,WNW,290,0.0,2.0,97,0.00,,,0.00,Wunderground v.1.15,2013-08-19 09:21:00,
2013-08-19 02:27:00,52.1,51.3,30.07,WNW,290,0.0,2.0,97,0.00,,,0.00,Wunderground v.1.15,2013-08-19 09:27:00,
2013-08-19 02:32:00,51.9,51.1,30.07,WNW,290,0.0,2.0,97,0.00,,,0.00,Wunderground v.1.15,2013-08-19 09:32:00,
2013-08-19 02:38:00,51.8,51.0,30.07,WNW,290,0.0,2.0,97,0.00,,,0.00,Wunderground v.1.15,2013-08-19 09:38:00,
2013-08-19 02:43:00,51.9,51.1,30.07,WNW,290,0.0,2.0,97,0.00,,,0.00,Wunderground v.1.15,2013-08-19 09:43:00,
2013-08-19 02:49:00,52.1,51.3,30.07,WNW,290,0.0,2.0,97,0.00,,,0.00,Wunderground v.1.15,2013-08-19 09:49:00,
2013-08-19 02:54:00,52.3,51.5,30.07,WNW,290,0.0,2.0,97,0.00,,,0.00,Wunderground v.1.15,2013-08-19 09:54:00,
2013-08-19 03:00:00,52.3,51.5,30.07,WNW,290,0.0,2.0,97,0.00,,,0.00,Wunderground v.1.15,2013-08-19 10:00:00,
2013-08-19 03:05:00,52.5,52.0,30.07,WNW,290,0.0,2.0,98,0.00,,,0.00,Wunderground v.1.15,2013-08-19 10:05:00,
2013-08-19 03:11:00,52.5,51.7,30.07,WNW,290,0.0,2.0,97,0.00,,,0.00,Wunderground v.1.15,2013-08-19 10:11:00,
2013-08-19 03:17:00,52.5,51.7,30.07,WNW,290,0.0,2.0,97,0.00,,,0.00,Wunderground v.1.15,2013-08-19 10:17:00,
2013-08-19 03:22:00,52.5,51.7,30.07,WNW,290,0.0,2.0,97,0.00,,,0.00,Wunderground v.1.15,2013-08-19 10:22:00,
2013-08-19 03:28:00,52.6,51.8,30.07,WNW,290,0.0,2.0,97,0.00,,,0.00,Wunderground v.1.15,2013-08-19 10:28:00,
2013-08-19 03:33:00,52.7,51.9,30.07,WNW,290,0.0,2.0,97,0.00,,,0.00,Wunderground v.1.15,2013-08-19 10:33:00,
2013-08-19 03:38:00,52.8,52.3,30.07,WNW,290,0.0,2.0,98,0.00,,,0.00,Wunderground v.1.15,2013-08-19 10:38:00,
2013-08-19 03:43:00,53.2,52.7,30.07,WNW,290,0.0,2.0,98,0.00,,,0.00,Wunderground v.1.15,2013-08-19 10:43:00,
2013-08-19 03:48:00,53.3,52.8,30.06,WNW,290,0.0,2.0,98,0.00,,,0.00,Wunderground v.1.15,2013-08-19 10:48:00,
2013-08-19 03:53:00,53.2,52.7,30.06,WNW,290,0.0,2.0,98,0.00,,,0.00,Wunderground v.1.15,2013-08-19 10:53:00,
2013-08-19 03:59:00,53.3,52.8,30.07,WNW,290,0.0,2.0,98,0.00,,,0.00,Wunderground v.1.15,2013-08-19 10:59:00,
2013-08-19 04:04:00,53.4,52.8,30.06,WNW,290,0.0,2.0,98,0.00,,,0.00,Wunderground v.1.15,2013-08-19 11:04:00,
2013-08-19 04:09:00,53.5,52.9,30.06,WNW,290,0.0,2.0,98,0.00,,,0.00,Wunderground v.1.15,2013-08-19 11:09:00,
2013-08-19 04:14:00,53.5,52.9,30.06,WNW,290,0.0,2.0,98,0.00,,,0.00,Wunderground v.1.15,2013-08-19 11:14:00,
2013-08-19 04:20:00,53.5,52.9,30.07,WNW,290,0.0,2.0,98,0.00,,,0.00,Wunderground v.1.15,2013-08-19 11:20:00,
2013-08-19 04:25:00,53.5,52.9,30.07,WNW,290,0.0,2.0,98,0.00,,,0.00,Wunderground v.1.15,2013-08-19 11:25:00,
2013-08-19 04:30:00,53.6,53.0,30.06,WNW,290,0.0,2.0,98,0.00,,,0.00,Wunderground v.1.15,2013-08-19 11:30:00,
2013-08-19 04:35:00,53.7,53.1,30.07,WNW,290,0.0,2.0,98,0.00,,,0.00,Wunderground v.1.15,2013-08-19 11:35:00,
2013-08-19 04:40:00,53.8,53.2,30.07,WNW,290,0.0,2.0,98,0.00,,,0.00,Wunderground v.1.15,2013-08-19 11:40:00,
2013-08-19 04:46:00,53.8,53.2,30.07,WNW,290,0.0,2.0,98,0.00,,,0.00,Wunderground v.1.15,2013-08-19 11:46:00,
2013-08-19 04:51:00,53.8,53.2,30.07,WNW,290,0.0,2.0,98,0.00,,,0.00,Wunderground v.1.15,2013-08-19 11:51:00,
2013-08-19 04:56:00,53.9,53.3,30.07,WNW,290,0.0,2.0,98,0.00,,,0.00,Wunderground v.1.15,2013-08-19 11:56:00,
2013-08-19 05:02:00,53.9,53.3,30.07,WNW,290,0.0,2.0,98,0.00,,,0.00,Wunderground v.1.15,2013-08-19 12:02:00,
2013-08-19 05:07:00,53.9,53.3,30.07,WNW,290,0.0,2.0,98,0.00,,,0.00,Wunderground v.1.15,2013-08-19 12:07:00,
2013-08-19 05:12:00,53.9,53.3,30.07,WNW,290,0.0,2.0,98,0.00,,,0.00,Wunderground v.1.15,2013-08-19 12:12:00,
2013-08-19 05:17:00,53.9,53.3,30.07,WNW,290,0.0,2.0,98,0.00,,,0.00,Wunderground v.1.15,2013-08-19 12:17:00,
2013-08-19 05:23:00,53.8,53.2,30.07,WNW,290,0.0,2.0,98,0.00,,,0.00,Wunderground v.1.15,2013-08-19 12:23:00,
2013-08-19 05:28:00,53.8,53.2,30.07,WNW,290,0.0,2.0,98,0.00,,,0.00,Wunderground v.1.15,2013-08-19 12:28:00,
2013-08-19 05:33:00,53.8,53.2,30.08,WNW,290,0.0,2.0,98,0.00,,,0.00,Wunderground v.1.15,2013-08-19 12:33:00,
2013-08-19 05:38:00,53.7,53.1,30.08,WNW,290,0.0,2.0,98,0.00,,,0.00,Wunderground v.1.15,2013-08-19 12:38:00,
2013-08-19 05:43:00,53.7,53.1,30.08,WNW,290,0.0,2.0,98,0.00,,,0.00,Wunderground v.1.15,2013-08-19 12:43:00,
2013-08-19 05:49:00,53.7,53.1,30.08,WNW,290,0.0,2.0,98,0.00,,,0.00,Wunderground v.1.15,2013-08-19 12:49:00,
2013-08-19 05:55:00,53.6,53.0,30.08,WNW,290,0.0,2.0,98,0.00,,,0.00,Wunderground v.1.15,2013-08-19 12:55:00,
2013-08-19 06:00:00,53.6,53.0,30.08,WNW,290,0.0,2.0,98,0.00,,,0.00,Wunderground v.1.15,2013-08-19 13:00:00,
2013-08-19 06:06:00,53.6,53.0,30.08,WNW,290,0.0,2.0,98,0.00,,,0.00,Wunderground v.1.15,2013-08-19 13:06:00,
2013-08-19 06:12:00,53.7,53.1,30.08,WNW,290,0.0,2.0,98,0.00,,,0.00,Wunderground v.1.15,2013-08-19 13:12:00,
2013-08-19 06:17:00,53.7,53.1,30.08,WNW,290,0.0,2.0,98,0.00,,,0.00,Wunderground v.1.15,2013-08-19 13:17:00,
2013-08-19 06:23:00,53.7,53.1,30.08,WNW,290,0.0,2.0,98,0.00,,,0.00,Wunderground v.1.15,2013-08-19 13:23:00,
2013-08-19 06:29:00,53.7,53.1,30.08,WNW,290,0.0,2.0,98,0.00,,,0.00,Wunderground v.1.15,2013-08-19 13:29:00,
2013-08-19 06:34:00,53.7,53.1,30.08,WNW,290,0.0,2.0,98,0.00,,,0.00,Wunderground v.1.15,2013-08-19 13:34:00,
2013-08-19 06:39:00,53.6,53.0,30.08,WNW,290,0.0,2.0,98,0.00,,,0.00,Wunderground v.1.15,2013-08-19 13:39:00,
2013-08-19 06:45:00,53.5,52.9,30.08,WNW,290,0.0,2.0,98,0.00,,,0.00,Wunderground v.1.15,2013-08-19 13:45:00,
2013-08-19 06:51:00,53.5,52.9,30.09,WNW,290,0.0,2.0,98,0.00,,,0.00,Wunderground v.1.15,2013-08-19 13:51:00,
2013-08-19 06:57:00,53.5,52.9,30.09,WNW,290,0.0,2.0,98,0.00,,,0.00,Wunderground v.1.15,2013-08-19 13:57:00,
2013-08-19 07:03:00,53.4,52.8,30.09,WNW,290,0.0,2.0,98,0.00,,,0.00,Wunderground v.1.15,2013-08-19 14:03:00,
2013-08-19 07:09:00,53.5,52.9,30.09,WNW,290,0.0,2.0,98,0.00,,,0.00,Wunderground v.1.15,2013-08-19 14:09:00,
2013-08-19 07:15:00,53.3,52.8,30.09,WNW,290,0.0,2.0,98,0.00,,,0.00,Wunderground v.1.15,2013-08-19 14:15:00,
2013-08-19 07:21:00,53.5,52.9,30.09,WNW,290,0.0,2.0,98,0.00,,,0.00,Wunderground v.1.15,2013-08-19 14:21:00,
2013-08-19 07:27:00,53.6,53.0,30.09,WNW,290,0.0,2.0,98,0.00,,,0.00,Wunderground v.1.15,2013-08-19 14:27:00,
2013-08-19 07:33:00,53.6,53.0,30.09,WNW,290,0.0,2.0,98,0.00,,,0.00,Wunderground v.1.15,2013-08-19 14:33:00,
2013-08-19 07:39:00,53.7,53.1,30.09,WNW,290,0.0,2.0,98,0.00,,,0.00,Wunderground v.1.15,2013-08-19 14:39:00,
2013-08-19 07:44:00,53.7,53.1,30.10,WNW,290,0.0,2.0,98,0.00,,,0.00,Wunderground v.1.15,2013-08-19 14:44:00,
2013-08-19 07:50:00,53.7,53.1,30.10,WNW,290,0.0,2.0,98,0.00,,,0.00,Wunderground v.1.15,2013-08-19 14:50:00,
2013-08-19 07:56:00,53.7,53.1,30.10,WNW,290,0.0,2.0,98,0.00,,,0.00,Wunderground v.1.15,2013-08-19 14:56:00,
2013-08-19 08:01:00,53.7,53.1,30.10,WNW,290,0.0,2.0,98,0.00,,,0.00,Wunderground v.1.15,2013-08-19 15:01:00,
2013-08-19 08:07:00,53.9,53.3,30.10,WNW,290,0.0,2.0,98,0.00,,,0.00,Wunderground v.1.15,2013-08-19 15:07:00,
2013-08-19 08:13:00,54.0,53.4,30.10,WNW,290,0.0,2.0,98,0.00,,,0.00,Wunderground v.1.15,2013-08-19 15:13:00,
2013-08-19 08:18:00,54.1,53.5,30.10,WNW,290,0.0,2.0,98,0.00,,,0.00,Wunderground v.1.15,2013-08-19 15:18:00,
2013-08-19 08:23:00,54.2,53.6,30.10,WNW,290,0.0,2.0,98,0.00,,,0.00,Wunderground v.1.15,2013-08-19 15:23:00,
2013-08-19 08:29:00,54.4,53.8,30.11,WNW,290,0.0,2.0,98,0.00,,,0.00,Wunderground v.1.15,2013-08-19 15:29:00,
2013-08-19 08:35:00,54.7,54.1,30.11,WNW,290,0.0,2.0,98,0.00,,,0.00,Wunderground v.1.15,2013-08-19 15:35:00,
2013-08-19 08:41:00,55.0,54.7,30.11,WNW,290,0.0,2.0,99,0.00,,,0.00,Wunderground v.1.15,2013-08-19 15:41:00,
2013-08-19 08:46:00,55.2,54.9,30.11,WNW,290,0.0,2.0,99,0.00,,,0.00,Wunderground v.1.15,2013-08-19 15:46:00,
2013-08-19 08:52:00,55.6,55.3,30.11,WNW,290,0.0,2.0,99,0.00,,,0.00,Wunderground v.1.15,2013-08-19 15:52:00,
2013-08-19 08:58:00,55.6,55.3,30.11,WNW,290,0.0,2.0,99,0.00,,,0.00,Wunderground v.1.15,2013-08-19 15:58:00,
2013-08-19 09:04:00,56.2,55.9,30.11,WNW,289,0.0,2.0,99,0.00,,,0.00,Wunderground v.1.15,2013-08-19 16:04:00,
2013-08-19 09:09:00,56.6,56.3,30.11,WNW,289,0.0,2.0,99,0.00,,,0.00,Wunderground v.1.15,2013-08-19 16:09:00,
2013-08-19 09:15:00,57.4,57.1,30.11,WNW,289,0.0,2.0,99,0.00,,,0.00,Wunderground v.1.15,2013-08-19 16:15:00,
2013-08-19 09:21:00,58.0,57.7,30.11,WNW,289,0.0,2.0,99,0.00,,,0.00,Wunderground v.1.15,2013-08-19 16:21:00,
2013-08-19 09:26:00,58.7,58.4,30.11,WNW,289,0.0,2.0,99,0.00,,,0.00,Wunderground v.1.15,2013-08-19 16:26:00,
2013-08-19 09:31:00,59.3,59.0,30.11,WNW,288,0.0,2.0,99,0.00,,,0.00,Wunderground v.1.15,2013-08-19 16:31:00,
2013-08-19 09:37:00,60.0,59.4,30.11,SW,217,0.0,2.0,98,0.00,,,0.00,Wunderground v.1.15,2013-08-19 16:37:00,
2013-08-19 09:42:00,60.9,60.3,30.11,SW,216,0.0,2.0,98,0.00,,,0.00,Wunderground v.1.15,2013-08-19 16:42:00,
2013-08-19 09:47:00,61.7,60.8,30.11,SW,216,0.0,2.0,97,0.00,,,0.00,Wunderground v.1.15,2013-08-19 16:47:00,
2013-08-19 09:52:00,62.2,60.5,30.11,SW,216,0.0,2.0,94,0.00,,,0.00,Wunderground v.1.15,2013-08-19 16:52:00,
2013-08-19 09:57:00,63.2,61.1,30.11,SW,216,0.0,2.0,93,0.00,,,0.00,Wunderground v.1.15,2013-08-19 16:57:00,
2013-08-19 10:03:00,64.6,61.3,30.11,SW,216,0.0,2.0,89,0.00,,,0.00,Wunderground v.1.15,2013-08-19 17:03:00,
2013-08-19 10:09:00,65.7,60.7,30.11,SW,216,0.0,2.0,84,0.00,,,0.00,Wunderground v.1.15,2013-08-19 17:09:00,
2013-08-19 10:14:00,66.5,61.5,30.11,SW,235,0.0,2.0,84,0.00,,,0.00,Wunderground v.1.15,2013-08-19 17:14:00,
2013-08-19 10:19:00,67.1,61.1,30.11,West,265,1.0,3.0,81,0.00,,,0.00,Wunderground v.1.15,2013-08-19 17:19:00,
2013-08-19 10:25:00,67.4,61.0,30.11,West,278,1.0,3.0,80,0.00,,,0.00,Wunderground v.1.15,2013-08-19 17:25:00,
2013-08-19 10:30:00,67.8,61.4,30.11,WNW,283,2.0,2.0,80,0.00,,,0.00,Wunderground v.1.15,2013-08-19 17:30:00,
2013-08-19 10:36:00,68.5,61.7,30.11,West,271,3.0,3.0,79,0.00,,,0.00,Wunderground v.1.15,2013-08-19 17:36:00,
2013-08-19 10:41:00,69.2,62.4,30.11,West,271,4.0,9.0,79,0.00,,,0.00,Wunderground v.1.15,2013-08-19 17:41:00,
2013-08-19 10:47:00,69.7,61.4,30.11,WNW,285,4.0,9.0,75,0.00,,,0.00,Wunderground v.1.15,2013-08-19 17:47:00,
2013-08-19 10:53:00,70.3,61.6,30.11,West,273,3.0,4.0,74,0.00,,,0.00,Wunderground v.1.15,2013-08-19 17:53:00,
2013-08-19 10:58:00,70.8,60.9,30.11,WNW,284,5.0,8.0,71,0.00,,,0.00,Wunderground v.1.15,2013-08-19 17:58:00,
2013-08-19 11:03:00,71.1,61.2,30.11,West,266,5.0,5.0,71,0.00,,,0.00,Wunderground v.1.15,2013-08-19 18:03:00,
2013-08-19 11:08:00,71.3,60.2,30.11,WNW,285,5.0,5.0,68,0.00,,,0.00,Wunderground v.1.15,2013-08-19 18:08:00,
2013-08-19 11:14:00,71.5,60.8,30.11,WNW,302,5.0,6.0,69,0.00,,,0.00,Wunderground v.1.15,2013-08-19 18:14:00,
2013-08-19 11:20:00,71.5,59.5,30.11,West,267,4.0,7.0,66,0.00,,,0.00,Wunderground v.1.15,2013-08-19 18:20:00,
2013-08-19 11:26:00,72.1,59.7,30.11,West,273,5.0,7.0,65,0.00,,,0.00,Wunderground v.1.15,2013-08-19 18:26:00,
2013-08-19 11:31:00,72.6,60.2,30.11,West,269,5.0,8.0,65,0.00,,,0.00,Wunderground v.1.15,2013-08-19 18:31:00,
2013-08-19 11:36:00,72.8,60.3,30.11,WNW,292,4.0,8.0,65,0.00,,,0.00,Wunderground v.1.15,2013-08-19 18:36:00,
2013-08-19 11:42:00,73.2,60.7,30.10,WNW,298,3.0,4.0,65,0.00,,,0.00,Wunderground v.1.15,2013-08-19 18:42:00,
2013-08-19 11:47:00,73.4,60.5,30.10,WNW,300,3.0,5.0,64,0.00,,,0.00,Wunderground v.1.15,2013-08-19 18:47:00,
2013-08-19 11:53:00,73.8,60.9,30.11,NW,322,4.0,7.0,64,0.00,,,0.00,Wunderground v.1.15,2013-08-19 18:53:00,
2013-08-19 11:59:00,73.9,61.0,30.10,WSW,253,5.0,8.0,64,0.00,,,0.00,Wunderground v.1.15,2013-08-19 18:59:00,
2013-08-19 12:05:00,73.5,60.1,30.11,WNW,298,6.0,7.0,63,0.00,,,0.00,Wunderground v.1.15,2013-08-19 19:05:00,
2013-08-19 12:11:00,72.9,60.0,30.11,WNW,286,5.0,6.0,64,0.00,,,0.00,Wunderground v.1.15,2013-08-19 19:11:00,
2013-08-19 12:17:00,72.3,59.4,30.11,WNW,284,5.0,8.0,64,0.00,,,0.00,Wunderground v.1.15,2013-08-19 19:17:00,
2013-08-19 12:22:00,72.3,59.9,30.11,West,273,6.0,9.0,65,0.00,,,0.00,Wunderground v.1.15,2013-08-19 19:22:00,
2013-08-19 12:27:00,72.3,59.9,30.11,WNW,291,6.0,11.0,65,0.00,,,0.00,Wunderground v.1.15,2013-08-19 19:27:00,
2013-08-19 12:33:00,72.8,59.9,30.11,West,269,5.0,8.0,64,0.00,,,0.00,Wunderground v.1.15,2013-08-19 19:33:00,
2013-08-19 12:39:00,72.7,59.8,30.11,WSW,255,4.0,10.0,64,0.00,,,0.00,Wunderground v.1.15,2013-08-19 19:39:00,
2013-08-19 12:44:00,73.3,61.3,30.11,WNW,285,4.0,7.0,66,0.00,,,0.00,Wunderground v.1.15,2013-08-19 19:44:00,
2013-08-19 12:50:00,73.2,60.7,30.11,NW,321,4.0,4.0,65,0.00,,,0.00,Wunderground v.1.15,2013-08-19 19:50:00,
2013-08-19 12:56:00,73.4,61.3,30.11,NW,311,4.0,5.0,66,0.00,,,0.00,Wunderground v.1.15,2013-08-19 19:56:00,
2013-08-19 13:01:00,73.1,61.1,30.10,West,274,4.0,6.0,66,0.00,,,0.00,Wunderground v.1.15,2013-08-19 20:01:00,
2013-08-19 13:07:00,73.1,61.5,30.10,West,270,5.0,8.0,67,0.00,,,0.00,Wunderground v.1.15,2013-08-19 20:07:00,
2013-08-19 13:12:00,73.0,61.4,30.10,WNW,288,5.0,9.0,67,0.00,,,0.00,Wunderground v.1.15,2013-08-19 20:12:00,
2013-08-19 13:17:00,73.4,62.2,30.10,NW,306,5.0,9.0,68,0.00,,,0.00,Wunderground v.1.15,2013-08-19 20:17:00,
2013-08-19 13:22:00,73.7,62.5,30.10,NW,311,4.0,8.0,68,0.00,,,0.00,Wunderground v.1.15,2013-08-19 20:22:00,
2013-08-19 13:27:00,73.3,62.1,30.10,West,279,5.0,11.0,68,0.00,,,0.00,Wunderground v.1.15,2013-08-19 20:27:00,
2013-08-19 13:33:00,72.6,61.8,30.10,WNW,301,7.0,7.0,69,0.00,,,0.00,Wunderground v.1.15,2013-08-19 20:33:00,
2013-08-19 13:38:00,72.0,61.3,30.11,WSW,258,7.0,10.0,69,0.00,,,0.00,Wunderground v.1.15,2013-08-19 20:38:00,
2013-08-19 13:43:00,72.3,61.6,30.10,WNW,284,7.0,9.0,69,0.00,,,0.00,Wunderground v.1.15,2013-08-19 20:43:00,
2013-08-19 13:48:00,72.5,60.9,30.10,WNW,289,7.0,9.0,67,0.00,,,0.00,Wunderground v.1.15,2013-08-19 20:48:00,
2013-08-19 13:53:00,73.0,62.2,30.10,NNW,331,5.0,6.0,69,0.00,,,0.00,Wunderground v.1.15,2013-08-19 20:53:00,
2013-08-19 13:58:00,73.0,61.4,30.10,NW,323,4.0,6.0,67,0.00,,,0.00,Wunderground v.1.15,2013-08-19 20:58:00,
2013-08-19 14:03:00,72.8,61.6,30.10,WSW,251,4.0,5.0,68,0.00,,,0.00,Wunderground v.1.15,2013-08-19 21:03:00,
2013-08-19 14:09:00,72.8,62.0,30.10,North,360,3.0,5.0,69,0.00,,,0.00,Wunderground v.1.15,2013-08-19 21:09:00,
2013-08-19 14:15:00,72.9,61.7,30.10,NNW,335,3.0,6.0,68,0.00,,,0.00,Wunderground v.1.15,2013-08-19 21:15:00,
2013-08-19 14:21:00,72.4,61.7,30.10,West,279,4.0,6.0,69,0.00,,,0.00,Wunderground v.1.15,2013-08-19 21:21:00,
2013-08-19 14:26:00,72.9,62.1,30.10,WNW,296,3.0,6.0,69,0.00,,,0.00,Wunderground v.1.15,2013-08-19 21:26:00,
2013-08-19 14:31:00,72.7,61.5,30.10,NNE,33,3.0,6.0,68,0.00,,,0.00,Wunderground v.1.15,2013-08-19 21:31:00,
2013-08-19 14:37:00,72.4,62.1,30.10,North,360,3.0,6.0,70,0.00,,,0.00,Wunderground v.1.15,2013-08-19 21:37:00,
2013-08-19 14:42:00,72.2,61.9,30.10,NW,318,4.0,4.0,70,0.00,,,0.00,Wunderground v.1.15,2013-08-19 21:42:00,
2013-08-19 14:47:00,71.7,61.4,30.09,North,355,4.0,6.0,70,0.00,,,0.00,Wunderground v.1.15,2013-08-19 21:47:00,
2013-08-19 14:52:00,71.8,62.3,30.09,NNE,21,4.0,7.0,72,0.00,,,0.00,Wunderground v.1.15,2013-08-19 21:52:00,
2013-08-19 14:57:00,71.9,62.4,30.09,NNW,342,4.0,7.0,72,0.00,,,0.00,Wunderground v.1.15,2013-08-19 21:57:00,
2013-08-19 15:03:00,72.0,62.5,30.09,NNW,340,6.0,9.0,72,0.00,,,0.00,Wunderground v.1.15,2013-08-19 22:03:00,
2013-08-19 15:08:00,72.4,62.9,30.09,WNW,293,5.0,9.0,72,0.00,,,0.00,Wunderground v.1.15,2013-08-19 22:08:00,
2013-08-19 15:14:00,72.6,63.1,30.09,NW,305,3.0,5.0,72,0.00,,,0.00,Wunderground v.1.15,2013-08-19 22:14:00,
2013-08-19 15:19:00,73.0,63.0,30.09,WNW,282,4.0,11.0,71,0.00,,,0.00,Wunderground v.1.15,2013-08-19 22:19:00,
2013-08-19 15:24:00,72.8,62.8,30.09,WNW,301,3.0,4.0,71,0.00,,,0.00,Wunderground v.1.15,2013-08-19 22:24:00,
2013-08-19 15:29:00,72.9,63.3,30.08,NW,313,3.0,9.0,72,0.00,,,0.00,Wunderground v.1.15,2013-08-19 22:29:00,
2013-08-19 15:35:00,72.8,62.8,30.08,NNW,333,4.0,7.0,71,0.00,,,0.00,Wunderground v.1.15,2013-08-19 22:35:00,
2013-08-19 15:41:00,72.5,63.4,30.08,NW,317,5.0,5.0,73,0.00,,,0.00,Wunderground v.1.15,2013-08-19 22:41:00,
2013-08-19 15:47:00,72.4,62.9,30.08,WNW,285,4.0,6.0,72,0.00,,,0.00,Wunderground v.1.15,2013-08-19 22:47:00,
2013-08-19 15:53:00,72.3,63.2,30.08,NW,318,4.0,4.0,73,0.00,,,0.00,Wunderground v.1.15,2013-08-19 22:53:00,
2013-08-19 15:58:00,72.2,63.1,30.08,WNW,295,3.0,5.0,73,0.00,,,0.00,Wunderground v.1.15,2013-08-19 22:58:00,
2013-08-19 16:03:00,72.1,63.0,30.08,WNW,289,3.0,5.0,73,0.00,,,0.00,Wunderground v.1.15,2013-08-19 23:03:00,
2013-08-19 16:09:00,71.5,62.8,30.08,WNW,289,4.0,8.0,74,0.00,,,0.00,Wunderground v.1.15,2013-08-19 23:09:00,
2013-08-19 16:14:00,71.2,62.5,30.08,NW,316,4.0,5.0,74,0.00,,,0.00,Wunderground v.1.15,2013-08-19 23:14:00,
2013-08-19 16:20:00,70.9,62.6,30.08,NW,306,4.0,4.0,75,0.00,,,0.00,Wunderground v.1.15,2013-08-19 23:20:00,
2013-08-19 16:25:00,70.6,62.3,30.07,West,275,5.0,6.0,75,0.00,,,0.00,Wunderground v.1.15,2013-08-19 23:25:00,
2013-08-19 16:31:00,70.8,62.5,30.08,NW,318,5.0,5.0,75,0.00,,,0.00,Wunderground v.1.15,2013-08-19 23:31:00,
2013-08-19 16:36:00,70.8,62.5,30.08,West,269,4.0,5.0,75,0.00,,,0.00,Wunderground v.1.15,2013-08-19 23:36:00,
2013-08-19 16:42:00,70.6,61.9,30.07,WNW,290,5.0,10.0,74,0.00,,,0.00,Wunderground v.1.15,2013-08-19 23:42:00,
2013-08-19 16:48:00,70.5,61.8,30.07,WNW,288,6.0,11.0,74,0.00,,,0.00,Wunderground v.1.15,2013-08-19 23:48:00,
2013-08-19 16:54:00,70.2,61.9,30.07,NW,308,5.0,7.0,75,0.00,,,0.00,Wunderground v.1.15,2013-08-19 23:54:00,
2013-08-19 16:59:00,70.2,61.5,30.07,NNW,327,4.0,7.0,74,0.00,,,0.00,Wunderground v.1.15,2013-08-19 23:59:00,
2013-08-19 17:04:00,70.2,61.9,30.07,WNW,294,4.0,4.0,75,0.00,,,0.00,Wunderground v.1.15,2013-08-20 00:04:00,
2013-08-19 17:10:00,70.0,61.7,30.07,NNW,343,4.0,4.0,75,0.00,,,0.00,Wunderground v.1.15,2013-08-20 00:10:00,
2013-08-19 17:16:00,69.8,61.5,30.07,NNW,344,3.0,6.0,75,0.00,,,0.00,Wunderground v.1.15,2013-08-20 00:16:00,
2013-08-19 17:22:00,69.4,60.8,30.06,North,360,4.0,4.0,74,0.00,,,0.00,Wunderground v.1.15,2013-08-20 00:22:00,
2013-08-19 17:27:00,69.4,61.1,30.07,North,350,4.0,8.0,75,0.00,,,0.00,Wunderground v.1.15,2013-08-20 00:27:00,
2013-08-19 17:33:00,69.5,61.2,30.06,NNW,341,3.0,8.0,75,0.00,,,0.00,Wunderground v.1.15,2013-08-20 00:33:00,
2013-08-19 17:39:00,69.5,61.2,30.06,WNW,295,3.0,8.0,75,0.00,,,0.00,Wunderground v.1.15,2013-08-20 00:39:00,
2013-08-19 17:45:00,69.5,60.8,30.06,North,355,3.0,7.0,74,0.00,,,0.00,Wunderground v.1.15,2013-08-20 00:45:00,
2013-08-19 17:51:00,69.5,60.8,30.06,North,11,3.0,6.0,74,0.00,,,0.00,Wunderground v.1.15,2013-08-20 00:51:00,
2013-08-19 17:57:00,69.3,60.7,30.06,NW,324,3.0,6.0,74,0.00,,,0.00,Wunderground v.1.15,2013-08-20 00:57:00,
2013-08-19 18:02:00,69.1,60.1,30.06,WNW,298,3.0,5.0,73,0.00,,,0.00,Wunderground v.1.15,2013-08-20 01:02:00,
2013-08-19 18:07:00,69.0,59.6,30.06,North,5,4.0,6.0,72,0.00,,,0.00,Wunderground v.1.15,2013-08-20 01:07:00,
2013-08-19 18:13:00,68.7,59.7,30.06,NW,306,4.0,4.0,73,0.00,,,0.00,Wunderground v.1.15,2013-08-20 01:13:00,
2013-08-19 18:18:00,68.7,59.7,30.06,NNW,338,3.0,5.0,73,0.00,,,0.00,Wunderground v.1.15,2013-08-20 01:18:00,
2013-08-19 18:24:00,68.5,59.1,30.06,North,360,3.0,7.0,72,0.00,,,0.00,Wunderground v.1.15,2013-08-20 01:24:00,
2013-08-19 18:29:00,68.1,59.1,30.06,NNW,327,3.0,7.0,73,0.00,,,0.00,Wunderground v.1.15,2013-08-20 01:29:00,
2013-08-19 18:35:00,68.1,59.1,30.06,NNW,327,3.0,4.0,73,0.00,,,0.00,Wunderground v.1.15,2013-08-20 01:35:00,
2013-08-19 18:41:00,67.7,58.3,30.06,West,275,4.0,6.0,72,0.00,,,0.00,Wunderground v.1.15,2013-08-20 01:41:00,
2013-08-19 18:47:00,67.5,58.9,30.05,NNW,339,4.0,6.0,74,0.00,,,0.00,Wunderground v.1.15,2013-08-20 01:47:00,
2013-08-19 18:52:00,67.4,59.2,30.05,West,271,3.0,4.0,75,0.00,,,0.00,Wunderground v.1.15,2013-08-20 01:52:00,
2013-08-19 18:58:00,67.5,59.7,30.05,NW,321,3.0,4.0,76,0.00,,,0.00,Wunderground v.1.15,2013-08-20 01:58:00,
2013-08-19 19:03:00,67.4,59.2,30.05,WNW,286,3.0,8.0,75,0.00,,,0.00,Wunderground v.1.15,2013-08-20 02:03:00,
2013-08-19 19:09:00,67.0,59.2,30.05,WNW,283,4.0,8.0,76,0.00,,,0.00,Wunderground v.1.15,2013-08-20 02:09:00,
2013-08-19 19:14:00,66.5,58.7,30.05,NE,36,5.0,9.0,76,0.00,,,0.00,Wunderground v.1.15,2013-08-20 02:14:00,
2013-08-19 19:20:00,66.2,58.4,30.05,North,355,6.0,6.0,76,0.00,,,0.00,Wunderground v.1.15,2013-08-20 02:20:00,
2013-08-19 19:26:00,65.9,58.1,30.05,West,280,4.0,6.0,76,0.00,,,0.00,Wunderground v.1.15,2013-08-20 02:26:00,
2013-08-19 19:32:00,65.2,57.8,30.05,NW,321,4.0,9.0,77,0.00,,,0.00,Wunderground v.1.15,2013-08-20 02:32:00,
2013-08-19 19:38:00,64.8,57.4,30.06,WNW,294,4.0,9.0,77,0.00,,,0.00,Wunderground v.1.15,2013-08-20 02:38:00,
2013-08-19 19:44:00,64.4,57.4,30.06,West,280,4.0,10.0,78,0.00,,,0.00,Wunderground v.1.15,2013-08-20 02:44:00,
2013-08-19 19:50:00,64.1,57.1,30.06,WNW,294,4.0,5.0,78,0.00,,,0.00,Wunderground v.1.15,2013-08-20 02:50:00,
2013-08-19 19:56:00,63.7,56.7,30.06,WNW,294,4.0,6.0,78,0.00,,,0.00,Wunderground v.1.15,2013-08-20 02:56:00,
2013-08-19 20:02:00,63.5,56.5,30.06,NW,311,3.0,4.0,78,0.00,,,0.00,Wunderground v.1.15,2013-08-20 03:02:00,
2013-08-19 20:08:00,63.2,56.2,30.06,NW,309,4.0,6.0,78,0.00,,,0.00,Wunderground v.1.15,2013-08-20 03:08:00,
2013-08-19 20:14:00,63.0,56.0,30.06,NNW,345,4.0,4.0,78,0.00,,,0.00,Wunderground v.1.15,2013-08-20 03:14:00,
2013-08-19 20:20:00,62.7,56.1,30.06,NW,306,2.0,3.0,79,0.00,,,0.00,Wunderground v.1.15,2013-08-20 03:20:00,
2013-08-19 20:26:00,62.5,55.9,30.06,WNW,285,3.0,6.0,79,0.00,,,0.00,Wunderground v.1.15,2013-08-20 03:26:00,
2013-08-19 20:31:00,62.3,56.0,30.07,West,274,4.0,8.0,80,0.00,,,0.00,Wunderground v.1.15,2013-08-20 03:31:00,
2013-08-19 20:37:00,62.2,56.3,30.07,WNW,288,4.0,8.0,81,0.00,,,0.00,Wunderground v.1.15,2013-08-20 03:37:00,
2013-08-19 20:42:00,62.0,56.1,30.07,WNW,286,4.0,6.0,81,0.00,,,0.00,Wunderground v.1.15,2013-08-20 03:42:00,
2013-08-19 20:48:00,61.8,55.9,30.07,NW,307,4.0,6.0,81,0.00,,,0.00,Wunderground v.1.15,2013-08-20 03:48:00,
2013-08-19 20:54:00,61.7,55.8,30.07,NW,325,2.0,3.0,81,0.00,,,0.00,Wunderground v.1.15,2013-08-20 03:54:00,
2013-08-19 20:59:00,61.7,55.8,30.07,NW,310,2.0,6.0,81,0.00,,,0.00,Wunderground v.1.15,2013-08-20 03:59:00,
2013-08-19 21:01:00,61.6,55.7,30.07,WNW,289,2.0,4.0,81,0.00,,,0.00,Wunderground v.1.15,2013-08-20 04:01:00,
2013-08-19 21:02:00,61.6,55.7,30.07,West,275,2.0,4.0,81,0.00,,,0.00,Wunderground v.1.15,2013-08-20 04:02:00,
2013-08-19 21:03:00,61.5,55.6,30.07,NW,309,2.0,4.0,81,0.00,,,0.00,Wunderground v.1.15,2013-08-20 04:03:00,
2013-08-19 21:04:00,61.5,55.6,30.07,NNW,332,3.0,4.0,81,0.00,,,0.00,Wunderground v.1.15,2013-08-20 04:04:00,
2013-08-19 21:08:00,61.4,55.5,30.07,NW,316,2.0,4.0,81,0.00,,,0.00,Wunderground v.1.15,2013-08-20 04:08:00,
2013-08-19 21:13:00,61.3,55.8,30.07,WNW,284,1.0,5.0,82,0.00,,,0.00,Wunderground v.1.15,2013-08-20 04:13:00,
2013-08-19 21:19:00,61.2,55.7,30.07,NW,305,1.0,5.0,82,0.00,,,0.00,Wunderground v.1.15,2013-08-20 04:19:00,
2013-08-19 21:25:00,61.1,55.6,30.07,WNW,297,2.0,5.0,82,0.00,,,0.00,Wunderground v.1.15,2013-08-20 04:25:00,
2013-08-19 21:30:00,61.1,55.6,30.07,WNW,298,3.0,3.0,82,0.00,,,0.00,Wunderground v.1.15,2013-08-20 04:30:00,
2013-08-19 21:36:00,61.2,55.7,30.07,NNW,336,2.0,5.0,82,0.00,,,0.00,Wunderground v.1.15,2013-08-20 04:36:00,
2013-08-19 21:42:00,61.1,55.6,30.07,NW,321,2.0,6.0,82,0.00,,,0.00,Wunderground v.1.15,2013-08-20 04:42:00,
2013-08-19 21:48:00,61.0,55.5,30.07,NW,318,2.0,6.0,82,0.00,,,0.00,Wunderground v.1.15,2013-08-20 04:48:00,
2013-08-19 21:54:00,61.0,55.5,30.08,NW,319,2.0,4.0,82,0.00,,,0.00,Wunderground v.1.15,2013-08-20 04:54:00,
2013-08-19 22:00:00,60.9,55.4,30.08,WNW,284,2.0,3.0,82,0.00,,,0.00,Wunderground v.1.15,2013-08-20 05:00:00,
2013-08-19 22:06:00,60.7,55.2,30.08,WNW,282,3.0,5.0,82,0.00,,,0.00,Wunderground v.1.15,2013-08-20 05:06:00,
2013-08-19 22:11:00,60.6,55.1,30.08,West,281,4.0,4.0,82,0.00,,,0.00,Wunderground v.1.15,2013-08-20 05:11:00,
2013-08-19 22:17:00,60.5,55.0,30.07,West,280,3.0,4.0,82,0.00,,,0.00,Wunderground v.1.15,2013-08-20 05:17:00,
2013-08-19 22:23:00,60.5,55.0,30.07,WNW,290,3.0,4.0,82,0.00,,,0.00,Wunderground v.1.15,2013-08-20 05:23:00,
2013-08-19 22:29:00,60.4,55.2,30.07,NW,309,2.0,4.0,83,0.00,,,0.00,Wunderground v.1.15,2013-08-20 05:29:00,
2013-08-19 22:35:00,60.4,55.2,30.07,WNW,292,2.0,6.0,83,0.00,,,0.00,Wunderground v.1.15,2013-08-20 05:35:00,
2013-08-19 22:40:00,60.4,55.2,30.07,WNW,283,2.0,2.0,83,0.00,,,0.00,Wunderground v.1.15,2013-08-20 05:40:00,
2013-08-19 22:45:00,60.4,55.2,30.07,WNW,302,2.0,5.0,83,0.00,,,0.00,Wunderground v.1.15,2013-08-20 05:45:00,
2013-08-19 22:51:00,60.4,55.2,30.07,NNW,327,1.0,2.0,83,0.00,,,0.00,Wunderground v.1.15,2013-08-20 05:51:00,
2013-08-19 22:56:00,60.2,55.0,30.07,NW,309,0.0,2.0,83,0.00,,,0.00,Wunderground v.1.15,2013-08-20 05:56:00,
2013-08-19 23:01:00,60.2,55.3,30.07,NW,326,1.0,2.0,84,0.00,,,0.00,Wunderground v.1.15,2013-08-20 06:01:00,
2013-08-19 23:06:00,60.1,55.2,30.08,NW,325,1.0,2.0,84,0.00,,,0.00,Wunderground v.1.15,2013-08-20 06:06:00,
2013-08-19 23:11:00,59.9,55.1,30.08,WNW,284,1.0,2.0,84,0.00,,,0.00,Wunderground v.1.15,2013-08-20 06:11:00,
2013-08-19 23:17:00,59.6,55.1,30.08,NW,307,1.0,3.0,85,0.00,,,0.00,Wunderground v.1.15,2013-08-20 06:17:00,
2013-08-19 23:23:00,59.3,54.8,30.08,WNW,287,1.0,4.0,85,0.00,,,0.00,Wunderground v.1.15,2013-08-20 06:23:00,
2013-08-19 23:28:00,59.6,55.1,30.08,NW,305,2.0,4.0,85,0.00,,,0.00,Wunderground v.1.15,2013-08-20 06:28:00,
2013-08-19 23:33:00,59.8,55.0,30.08,WNW,289,2.0,5.0,84,0.00,,,0.00,Wunderground v.1.15,2013-08-20 06:33:00,
2013-08-19 23:38:00,59.9,55.1,30.08,NW,322,2.0,5.0,84,0.00,,,0.00,Wunderground v.1.15,2013-08-20 06:38:00,
2013-08-19 23:44:00,59.9,55.1,30.08,WNW,300,1.0,2.0,84,0.00,,,0.00,Wunderground v.1.15,2013-08-20 06:44:00,
2013-08-19 23:49:00,59.7,54.9,30.08,WNW,298,1.0,2.0,84,0.00,,,0.00,Wunderground v.1.15,2013-08-20 06:49:00,
2013-08-19 23:54:00,59.2,54.7,30.09,NNW,336,1.0,2.0,85,0.00,,,0.00,Wunderground v.1.15,2013-08-20 06:54:00,